Time;durP1;ratioP1;P1;durP2;ratioP2;P2;SDS_P1;SDS_P2;PMS_P1;PMS_P2;Temp;Humidity;BMP_temperature;BMP_pressure;BME280_temperature;BME280_humidity;BME280_pressure;Samples;Min_cycle;Max_cycle;Signal;HPM_P1;HPM_P2
2020/12/15 07:18:33;;;;;;;9.98;6.97;;;;;;;;;;5019768;28;20080;-75
2020/12/15 07:20:59;;;;;;;11.53;7.80;;;;;;;;;;4996653;28;20524;-74
2020/12/15 07:23:24;;;;;;;11.70;7.72;;;;;;;;;;5009267;28;20037;-75
2020/12/15 07:25:50;;;;;;;14.23;8.07;;;;;;;;;;5012948;28;20026;-75
2020/12/15 07:28:15;;;;;;;10.87;7.43;;;;;;;;;;5005449;28;20025;-76
2020/12/15 07:30:40;;;;;;;12.90;8.43;;;;;;;;;;5012705;28;20072;-75
2020/12/15 07:33:06;;;;;;;12.83;8.30;;;;;;;;;;5005529;28;20049;-76
2020/12/15 07:35:31;;;;;;;13.50;8.07;;;;;;;;;;5016808;28;20561;-76
2020/12/15 07:37:57;;;;;;;12.33;8.17;;;;;;;;;;4992684;28;20037;-76
2020/12/15 07:40:22;;;;;;;10.00;7.60;;;;;;;;;;4994352;28;20489;-76
2020/12/15 07:42:54;;;;;;;11.73;8.37;;;;;;;;;;4977807;28;20099;-76
2020/12/15 07:45:21;;;;;;;10.90;8.15;;;;;;;;;;4997139;28;20269;-76
2020/12/15 07:47:46;;;;;;;12.00;8.43;;;;;;;;;;5014441;28;20540;-76
2020/12/15 07:50:14;;;;;;;12.03;8.10;;;;;;;;;;5033710;28;20075;-77
2020/12/15 07:52:39;;;;;;;13.02;8.60;;;;;;;;;;5016428;28;20033;-77
2020/12/15 07:55:05;;;;;;;13.17;8.47;;;;;;;;;;5016401;28;20032;-76
2020/12/15 07:57:31;;;;;;;12.27;8.32;;;;;;;;;;5032962;28;20113;-76
2020/12/15 07:59:57;;;;;;;12.25;8.20;;;;;;;;;;5032251;28;20025;-75
2020/12/15 08:02:22;;;;;;;12.10;7.93;;;;;;;;;;5016975;28;20155;-75
2020/12/15 08:04:47;;;;;;;13.17;8.40;;;;;;;;;;5033894;28;20057;-75
2020/12/15 08:07:16;;;;;;;11.17;7.53;;;;;;;;;;5033553;28;20029;-75
2020/12/15 08:09:41;;;;;;;10.13;7.68;;;;;;;;;;5032988;28;20021;-76
2020/12/15 08:12:06;;;;;;;14.00;8.50;;;;;;;;;;5032815;28;20064;-76
2020/12/15 08:14:32;;;;;;;10.33;7.20;;;;;;;;;;5015930;28;20095;-76
2020/12/15 08:16:57;;;;;;;10.73;7.50;;;;;;;;;;5017123;28;20099;-76
2020/12/15 08:19:25;;;;;;;10.80;7.43;;;;;;;;;;5019624;28;20057;-77
2020/12/15 08:21:51;;;;;;;12.13;8.15;;;;;;;;;;5020762;28;20021;-75
2020/12/15 08:24:26;;;;;;;11.50;8.13;;;;;;;;;;5037286;28;20388;-76
2020/12/15 08:26:51;;;;;;;12.85;9.35;;;;;;;;;;5021427;28;20028;-75
2020/12/15 08:29:17;;;;;;;13.40;9.30;;;;;;;;;;5033227;28;20068;-73
2020/12/15 08:31:43;;;;;;;14.37;9.47;;;;;;;;;;5042138;28;20028;-74
2020/12/15 08:34:12;;;;;;;16.58;9.10;;;;;;;;;;5023156;28;20083;-74
2020/12/15 08:36:48;;;;;;;12.45;8.30;;;;;;;;;;5039447;28;20045;-74
2020/12/15 08:39:14;;;;;;;12.70;8.50;;;;;;;;;;5022278;28;20030;-74
2020/12/15 08:41:52;;;;;;;13.88;8.27;;;;;;;;;;5004283;28;20035;-74
2020/12/15 08:44:18;;;;;;;12.48;8.38;;;;;;;;;;5019316;28;20123;-74
2020/12/15 08:46:44;;;;;;;14.07;8.35;;;;;;;;;;5003221;28;20445;-74
2020/12/15 08:49:16;;;;;;;11.52;8.15;;;;;;;;;;5002653;28;20444;-75
2020/12/15 08:51:45;;;;;;;13.20;8.80;;;;;;;;;;5001533;28;20022;-74
2020/12/15 08:54:10;;;;;;;11.85;8.10;;;;;;;;;;5000806;28;20469;-75
2020/12/15 08:56:36;;;;;;;17.80;8.43;;;;;;;;;;5000995;28;20029;-74
2020/12/15 08:59:12;;;;;;;12.93;7.93;;;;;;;;;;5018034;28;20344;-75
2020/12/15 09:01:37;;;;;;;14.18;7.50;;;;;;;;;;5000726;28;20034;-75
2020/12/15 09:04:03;;;;;;;11.80;7.47;;;;;;;;;;5000121;28;20026;-74
2020/12/15 09:06:34;;;;;;;13.70;7.73;;;;;;;;;;4999681;28;20124;-75
2020/12/15 09:09:00;;;;;;;11.90;7.60;;;;;;;;;;4999415;28;20033;-78
2020/12/15 09:11:25;;;;;;;15.10;7.63;;;;;;;;;;4999389;28;20018;-75
2020/12/15 09:13:58;;;;;;;10.90;7.50;;;;;;;;;;4999635;28;20022;-75
2020/12/15 09:16:28;;;;;;;11.77;7.25;;;;;;;;;;5000576;28;20030;-75
2020/12/15 09:18:54;;;;;;;10.52;7.15;;;;;;;;;;5015772;28;20391;-75
2020/12/15 09:21:19;;;;;;;9.83;7.03;;;;;;;;;;5015567;28;20037;-75
2020/12/15 09:24:03;;;;;;;12.70;6.97;;;;;;;;;;4982689;28;20476;-78
2020/12/15 09:26:28;;;;;;;10.20;7.10;;;;;;;;;;5015406;28;20044;-76
2020/12/15 09:28:53;;;;;;;9.43;6.80;;;;;;;;;;4998884;28;20112;-75
2020/12/15 09:31:19;;;;;;;10.77;6.97;;;;;;;;;;4999137;28;20053;-75
2020/12/15 09:33:44;;;;;;;10.60;7.27;;;;;;;;;;4999131;28;20144;-75
2020/12/15 09:36:17;;;;;;;10.70;7.13;;;;;;;;;;5015389;28;20025;-75
2020/12/15 09:38:42;;;;;;;12.25;6.95;;;;;;;;;;4999497;28;20037;-75
2020/12/15 09:41:07;;;;;;;10.70;6.73;;;;;;;;;;4982695;28;20447;-75
2020/12/15 09:43:33;;;;;;;10.60;6.97;;;;;;;;;;5015129;28;20480;-75
2020/12/15 09:46:00;;;;;;;12.17;7.17;;;;;;;;;;4998966;28;20370;-74
2020/12/15 09:48:25;;;;;;;11.15;7.13;;;;;;;;;;5015057;28;20026;-75
2020/12/15 09:50:52;;;;;;;10.90;7.23;;;;;;;;;;4998636;28;20064;-75
2020/12/15 09:53:18;;;;;;;9.25;6.53;;;;;;;;;;4998912;28;20061;-75
2020/12/15 09:55:43;;;;;;;10.07;7.00;;;;;;;;;;4998920;28;20021;-74
2020/12/15 09:58:08;;;;;;;11.77;7.33;;;;;;;;;;4982034;28;20079;-74
2020/12/15 10:00:34;;;;;;;10.03;6.90;;;;;;;;;;4998220;28;20493;-75
2020/12/15 10:02:59;;;;;;;9.47;6.70;;;;;;;;;;4982499;28;20060;-75
2020/12/15 10:05:24;;;;;;;10.07;6.77;;;;;;;;;;5014304;28;20025;-75
2020/12/15 10:07:50;;;;;;;9.07;6.53;;;;;;;;;;4998530;28;20026;-75
2020/12/15 10:10:16;;;;;;;10.03;6.27;;;;;;;;;;4998007;28;20026;-74
2020/12/15 10:12:42;;;;;;;;;;;;;;;;;;4998816;28;20037;-76
2020/12/15 10:15:07;;;;;;;9.20;6.18;;;;;;;;;;5014218;28;19914;-75
2020/12/15 10:17:33;;;;;;;8.83;6.30;;;;;;;;;;4981554;28;20449;-75
2020/12/15 10:19:58;;;;;;;9.87;6.40;;;;;;;;;;5014461;28;20393;-75
2020/12/15 10:22:25;;;;;;;9.47;6.73;;;;;;;;;;5014490;28;20748;-75
2020/12/15 10:24:50;;;;;;;10.57;6.13;;;;;;;;;;4997887;28;20061;-75
2020/12/15 10:27:16;;;;;;;9.90;6.73;;;;;;;;;;4981727;28;20081;-75
2020/12/15 10:29:41;;;;;;;10.03;6.40;;;;;;;;;;5000504;28;20026;-76
2020/12/15 10:32:06;;;;;;;9.53;6.27;;;;;;;;;;5002612;28;20029;-76
2020/12/15 10:34:32;;;;;;;8.60;5.87;;;;;;;;;;5000918;28;20060;-74
2020/12/15 10:36:57;;;;;;;10.87;6.40;;;;;;;;;;4999309;28;20022;-74
2020/12/15 10:39:22;;;;;;;15.07;6.00;;;;;;;;;;4998757;28;20068;-75
2020/12/15 10:41:50;;;;;;;20.97;6.23;;;;;;;;;;5014088;28;20053;-74
2020/12/15 10:44:15;;;;;;;12.07;6.18;;;;;;;;;;4999071;28;20056;-75
2020/12/15 10:46:41;;;;;;;11.37;6.23;;;;;;;;;;5000972;28;20036;-75
2020/12/15 10:49:07;;;;;;;;;;;;;;;;;;5000845;28;20022;-75
2020/12/15 10:51:33;;;;;;;8.52;5.93;;;;;;;;;;5018597;28;19917;-75
2020/12/15 10:53:58;;;;;;;12.67;6.50;;;;;;;;;;5000559;28;20512;-75
2020/12/15 10:56:23;;;;;;;16.20;7.70;;;;;;;;;;4999784;28;20413;-75
2020/12/15 10:58:49;;;;;;;26.37;8.93;;;;;;;;;;5016917;28;20373;-75
2020/12/15 11:01:14;;;;;;;19.43;8.50;;;;;;;;;;4999812;28;20030;-75
2020/12/15 11:03:39;;;;;;;19.23;7.80;;;;;;;;;;4999946;28;20025;-75
2020/12/15 11:06:05;;;;;;;19.07;7.63;;;;;;;;;;4984208;28;20034;-75
2020/12/15 11:08:30;;;;;;;17.73;7.87;;;;;;;;;;4983861;28;20058;-74
2020/12/15 11:10:55;;;;;;;17.43;7.53;;;;;;;;;;5000072;28;20033;-75
2020/12/15 11:13:21;;;;;;;16.50;7.40;;;;;;;;;;5014166;28;20049;-75
2020/12/15 11:15:46;;;;;;;15.63;7.50;;;;;;;;;;4980969;28;20026;-75
2020/12/15 11:18:12;;;;;;;15.37;7.20;;;;;;;;;;4997085;28;20030;-75
2020/12/15 11:20:37;;;;;;;15.30;7.37;;;;;;;;;;4996585;28;20068;-76
2020/12/15 11:23:04;;;;;;;17.53;7.30;;;;;;;;;;4997152;28;20053;-75
2020/12/15 11:25:30;;;;;;;11.68;7.10;;;;;;;;;;4997486;28;20495;-75
2020/12/15 11:27:55;;;;;;;12.93;7.10;;;;;;;;;;5013666;28;20032;-75
2020/12/15 11:30:20;;;;;;;13.13;7.13;;;;;;;;;;5015402;28;20022;-79
2020/12/15 11:32:47;;;;;;;12.07;6.67;;;;;;;;;;4996783;28;20122;-77
2020/12/15 11:35:12;;;;;;;13.80;6.68;;;;;;;;;;5013308;28;20567;-74
2020/12/15 11:37:40;;;;;;;11.47;6.63;;;;;;;;;;4997015;28;20033;-74
2020/12/15 11:40:07;;;;;;;13.63;6.70;;;;;;;;;;4996926;28;20076;-74
2020/12/15 11:42:32;;;;;;;;;;;;;;;;;;4980916;28;20094;-75
2020/12/15 11:44:57;;;;;;;12.77;6.30;;;;;;;;;;4993187;28;19917;-80
2020/12/15 11:47:23;;;;;;;14.17;6.50;;;;;;;;;;4973786;28;20062;-75
2020/12/15 11:49:48;;;;;;;11.77;6.07;;;;;;;;;;4974951;28;20046;-74
2020/12/15 11:52:14;;;;;;;12.40;7.00;;;;;;;;;;4973843;28;20067;-76
2020/12/15 11:54:40;;;;;;;11.27;6.47;;;;;;;;;;4974321;28;20051;-74
2020/12/15 11:57:06;;;;;;;;;;;;;;;;;;4973942;28;20033;-74
2020/12/15 11:59:31;;;;;;;10.88;6.68;;;;;;;;;;4973341;28;19938;-75
2020/12/15 12:01:56;;;;;;;11.87;5.60;;;;;;;;;;4984848;28;20070;-75
2020/12/15 12:04:22;;;;;;;11.43;6.33;;;;;;;;;;5000274;28;20053;-74
2020/12/15 12:06:47;;;;;;;14.17;6.13;;;;;;;;;;4992378;28;20068;-78
2020/12/15 12:09:12;;;;;;;14.57;6.13;;;;;;;;;;4992830;28;20054;-75
2020/12/15 12:11:38;;;;;;;10.60;6.10;;;;;;;;;;4976490;28;20026;-75
2020/12/15 12:14:03;;;;;;;11.20;6.33;;;;;;;;;;4996128;28;20049;-74
2020/12/15 12:16:28;;;;;;;10.30;5.77;;;;;;;;;;4995603;28;20525;-76
2020/12/15 12:18:54;;;;;;;11.43;6.00;;;;;;;;;;4998339;28;20439;-74
2020/12/15 12:21:19;;;;;;;9.20;5.70;;;;;;;;;;4996498;28;20041;-75
2020/12/15 12:23:44;;;;;;;9.03;5.73;;;;;;;;;;5000931;28;20085;-75
2020/12/15 12:26:14;;;;;;;8.87;5.40;;;;;;;;;;5004894;28;20464;-75
2020/12/15 12:28:39;;;;;;;8.60;5.55;;;;;;;;;;5006428;28;20093;-74
2020/12/15 12:31:04;;;;;;;14.13;5.33;;;;;;;;;;5021925;28;20022;-74
2020/12/15 12:33:30;;;;;;;11.33;5.37;;;;;;;;;;5013346;28;20033;-74
2020/12/15 12:35:55;;;;;;;11.93;5.97;;;;;;;;;;5018154;28;20049;-74
2020/12/15 12:38:20;;;;;;;11.60;5.67;;;;;;;;;;5014281;28;20470;-74
2020/12/15 12:40:46;;;;;;;10.90;5.60;;;;;;;;;;4994764;28;20053;-75
2020/12/15 12:43:12;;;;;;;9.98;5.20;;;;;;;;;;4998307;28;20022;-75
2020/12/15 12:45:40;;;;;;;8.35;5.20;;;;;;;;;;5002897;28;20064;-75
2020/12/15 12:48:08;;;;;;;7.68;5.00;;;;;;;;;;5003145;28;20023;-75
2020/12/15 12:50:34;;;;;;;9.40;5.20;;;;;;;;;;5004174;28;20018;-75
2020/12/15 12:52:59;;;;;;;9.20;5.57;;;;;;;;;;5002087;28;20031;-74
2020/12/15 12:55:25;;;;;;;8.43;5.33;;;;;;;;;;5006214;28;20026;-75
2020/12/15 12:57:50;;;;;;;7.57;5.03;;;;;;;;;;5005313;28;20025;-77
2020/12/15 13:00:15;;;;;;;9.13;5.50;;;;;;;;;;5005339;28;20049;-75
2020/12/15 13:02:41;;;;;;;8.90;5.20;;;;;;;;;;5020681;28;20064;-75
2020/12/15 13:05:07;;;;;;;7.93;5.20;;;;;;;;;;5022626;28;20109;-77
2020/12/15 13:07:36;;;;;;;7.70;5.47;;;;;;;;;;5004298;28;20128;-75
2020/12/15 13:10:01;;;;;;;7.47;4.80;;;;;;;;;;4991866;28;20038;-75
2020/12/15 13:12:26;;;;;;;8.10;5.37;;;;;;;;;;5022335;28;20404;-76
2020/12/15 13:14:52;;;;;;;8.53;5.00;;;;;;;;;;4994824;28;20053;-75
2020/12/15 13:17:17;;;;;;;11.70;5.60;;;;;;;;;;5011865;28;20058;-75
2020/12/15 13:19:42;;;;;;;8.27;4.77;;;;;;;;;;5028814;22;20056;-77
2020/12/15 13:22:09;;;;;;;8.50;5.30;;;;;;;;;;4985691;28;20061;-80
2020/12/15 13:24:34;;;;;;;;;;;;;;;;;;4996289;28;20398;-76
2020/12/15 13:26:59;;;;;;;9.47;4.90;;;;;;;;;;4995548;28;19914;-77
2020/12/15 13:29:25;;;;;;;7.80;4.73;;;;;;;;;;4996782;28;20030;-78
2020/12/15 13:31:50;;;;;;;7.90;5.10;;;;;;;;;;4981441;28;20050;-85
2020/12/15 13:34:15;;;;;;;8.50;4.77;;;;;;;;;;4983722;28;20030;-81
2020/12/15 13:36:41;;;;;;;10.03;5.10;;;;;;;;;;4980629;28;20496;-84
2020/12/15 13:39:06;;;;;;;16.10;5.10;;;;;;;;;;4977662;28;20568;-85
2020/12/15 13:41:31;;;;;;;13.13;5.07;;;;;;;;;;4981431;28;20409;-81
2020/12/15 13:43:57;;;;;;;13.07;4.90;;;;;;;;;;4980153;28;20053;-80
2020/12/15 13:46:22;;;;;;;12.67;4.70;;;;;;;;;;4983422;28;20022;-81
2020/12/15 13:48:47;;;;;;;10.67;4.40;;;;;;;;;;4999250;28;20136;-82
2020/12/15 13:51:13;;;;;;;11.07;4.70;;;;;;;;;;4984567;28;20057;-82
2020/12/15 13:53:38;;;;;;;11.30;4.80;;;;;;;;;;4981290;28;20056;-80
2020/12/15 13:56:03;;;;;;;10.23;4.20;;;;;;;;;;4990882;28;20057;-82
2020/12/15 13:58:29;;;;;;;10.27;4.57;;;;;;;;;;4985557;28;20053;-82
2020/12/15 14:00:54;;;;;;;12.83;4.63;;;;;;;;;;5014855;28;20132;-81
2020/12/15 14:03:20;;;;;;;10.33;4.60;;;;;;;;;;4999558;28;20500;-81
2020/12/15 14:05:47;;;;;;;8.10;4.63;;;;;;;;;;4998592;28;20026;-81
2020/12/15 14:08:12;;;;;;;9.55;4.55;;;;;;;;;;4991833;28;20130;-81
2020/12/15 14:10:37;;;;;;;8.50;4.10;;;;;;;;;;5012713;28;20101;-82
2020/12/15 14:13:03;;;;;;;11.90;4.37;;;;;;;;;;5014177;28;20049;-82
2020/12/15 14:15:28;;;;;;;7.20;4.33;;;;;;;;;;4998665;28;20068;-82
2020/12/15 14:17:56;;;;;;;7.17;4.30;;;;;;;;;;4997582;28;20025;-87
2020/12/15 14:20:22;;;;;;;8.25;4.43;;;;;;;;;;5014134;28;20072;-83
2020/12/15 14:22:47;;;;;;;12.50;5.00;;;;;;;;;;4998028;28;20072;-82
2020/12/15 14:25:12;;;;;;;7.67;4.60;;;;;;;;;;4998215;28;20056;-83
2020/12/15 14:27:38;;;;;;;9.00;4.20;;;;;;;;;;4998388;28;20030;-82
2020/12/15 14:30:03;;;;;;;9.83;4.40;;;;;;;;;;4998033;28;20046;-82
2020/12/15 14:32:28;;;;;;;8.53;4.40;;;;;;;;;;4998012;28;20419;-83
2020/12/15 14:34:54;;;;;;;8.83;4.43;;;;;;;;;;4997994;28;20108;-83
2020/12/15 14:37:19;;;;;;;10.07;4.73;;;;;;;;;;4998104;28;20057;-83
2020/12/15 14:39:44;;;;;;;9.70;4.17;;;;;;;;;;5014231;28;20107;-82
2020/12/15 14:42:11;;;;;;;10.03;4.43;;;;;;;;;;4997751;28;20050;-82
2020/12/15 14:44:36;;;;;;;7.32;3.90;;;;;;;;;;4997633;28;20113;-83
2020/12/15 14:47:01;;;;;;;7.97;4.40;;;;;;;;;;4997718;28;20065;-82
2020/12/15 14:49:27;;;;;;;6.73;4.27;;;;;;;;;;4997801;28;20504;-82
2020/12/15 14:51:52;;;;;;;9.23;4.30;;;;;;;;;;4997211;28;20497;-82
2020/12/15 14:54:19;;;;;;;8.97;4.30;;;;;;;;;;4997116;28;20463;-82
2020/12/15 14:56:45;;;;;;;6.53;4.00;;;;;;;;;;4997158;28;20088;-82
2020/12/15 14:59:10;;;;;;;9.55;4.20;;;;;;;;;;4981041;28;20026;-81
2020/12/15 15:01:36;;;;;;;6.63;4.10;;;;;;;;;;4996917;28;20123;-81
2020/12/15 15:04:01;;;;;;;6.93;4.07;;;;;;;;;;4996992;28;20084;-82
2020/12/15 15:06:27;;;;;;;6.83;4.20;;;;;;;;;;4996713;28;20080;-82
2020/12/15 15:08:52;;;;;;;7.13;4.03;;;;;;;;;;4996832;28;20026;-81
2020/12/15 15:11:18;;;;;;;5.93;3.90;;;;;;;;;;4996927;28;20053;-82
2020/12/15 15:13:43;;;;;;;7.38;4.32;;;;;;;;;;4997205;28;20100;-82
2020/12/15 15:16:10;;;;;;;7.30;4.10;;;;;;;;;;4996740;28;20053;-82
2020/12/15 15:18:36;;;;;;;6.70;4.07;;;;;;;;;;4997050;28;20115;-82
2020/12/15 15:21:01;;;;;;;6.60;4.23;;;;;;;;;;4996552;28;20045;-83
2020/12/15 15:23:27;;;;;;;6.33;3.97;;;;;;;;;;4996767;28;20127;-83
2020/12/15 15:25:52;;;;;;;10.15;4.22;;;;;;;;;;4980101;28;20022;-81
2020/12/15 15:28:17;;;;;;;5.57;4.17;;;;;;;;;;4996641;28;20070;-82
2020/12/15 15:30:43;;;;;;;6.27;4.00;;;;;;;;;;4989868;28;20116;-85
2020/12/15 15:33:08;;;;;;;8.33;4.23;;;;;;;;;;4992229;28;20060;-83
2020/12/15 15:35:33;;;;;;;8.27;3.93;;;;;;;;;;5012516;28;20034;-83
2020/12/15 15:37:59;;;;;;;6.80;4.10;;;;;;;;;;4993458;28;20033;-82
2020/12/15 15:40:24;;;;;;;7.37;4.60;;;;;;;;;;4976822;28;20460;-82
2020/12/15 15:42:49;;;;;;;10.60;4.60;;;;;;;;;;4993201;28;20049;-83
2020/12/15 15:45:15;;;;;;;6.93;4.30;;;;;;;;;;4977039;28;20058;-82
2020/12/15 15:47:40;;;;;;;6.30;4.10;;;;;;;;;;4992555;28;20057;-82
2020/12/15 15:50:05;;;;;;;8.00;4.40;;;;;;;;;;4991826;28;20104;-82
2020/12/15 15:52:31;;;;;;;7.80;4.37;;;;;;;;;;4977006;28;20088;-82
2020/12/15 15:54:57;;;;;;;7.03;4.00;;;;;;;;;;5004072;28;20033;-86
2020/12/15 15:57:22;;;;;;;6.75;4.45;;;;;;;;;;4996510;28;20125;-81
2020/12/15 15:59:48;;;;;;;7.75;4.90;;;;;;;;;;4996203;28;20022;-84
2020/12/15 16:02:13;;;;;;;7.57;4.90;;;;;;;;;;4996982;28;20026;-83
2020/12/15 16:04:39;;;;;;;9.30;4.80;;;;;;;;;;4994437;28;20033;-82
2020/12/15 16:07:06;;;;;;;8.00;4.30;;;;;;;;;;4996831;28;20033;-84
2020/12/15 16:09:31;;;;;;;6.57;4.43;;;;;;;;;;4999463;28;20396;-82
2020/12/15 16:11:56;;;;;;;9.03;4.43;;;;;;;;;;5000773;28;20024;-82
2020/12/15 16:14:22;;;;;;;8.93;4.23;;;;;;;;;;4997427;28;20046;-82
2020/12/15 16:16:51;;;;;;;8.15;4.70;;;;;;;;;;4965637;28;20426;-80
2020/12/15 16:19:17;;;;;;;7.38;4.18;;;;;;;;;;4984453;28;20061;-82
2020/12/15 16:21:42;;;;;;;8.10;4.23;;;;;;;;;;4997147;28;20065;-82
2020/12/15 16:24:07;;;;;;;8.43;4.20;;;;;;;;;;4995781;28;20026;-82
2020/12/15 16:26:33;;;;;;;8.17;4.60;;;;;;;;;;4977638;28;20478;-80
2020/12/15 16:29:02;;;;;;;6.17;4.33;;;;;;;;;;4974947;28;20503;-82
2020/12/15 16:31:27;;;;;;;6.60;4.30;;;;;;;;;;4996856;28;20021;-80
2020/12/15 16:33:55;;;;;;;10.37;4.63;;;;;;;;;;4992472;28;20072;-81
2020/12/15 16:36:20;;;;;;;6.30;4.43;;;;;;;;;;5001757;28;20026;-83
2020/12/15 16:38:45;;;;;;;7.97;4.50;;;;;;;;;;4983179;28;20028;-80
2020/12/15 16:41:12;;;;;;;6.90;4.57;;;;;;;;;;5000554;28;20068;-81
2020/12/15 16:43:37;;;;;;;6.93;4.57;;;;;;;;;;4983881;28;20034;-81
2020/12/15 16:46:03;;;;;;;6.05;4.45;;;;;;;;;;4997120;28;20117;-81
2020/12/15 16:48:28;;;;;;;7.47;4.40;;;;;;;;;;4997900;28;20412;-82
2020/12/15 16:50:53;;;;;;;7.10;4.60;;;;;;;;;;4997071;28;20049;-87
2020/12/15 16:53:19;;;;;;;6.53;4.50;;;;;;;;;;4985161;28;20044;-82
2020/12/15 16:55:44;;;;;;;6.20;4.40;;;;;;;;;;4972100;28;20029;-80
2020/12/15 16:58:09;;;;;;;6.80;4.40;;;;;;;;;;4981075;28;20560;-83
2020/12/15 17:00:35;;;;;;;6.97;4.53;;;;;;;;;;4996508;28;20040;-86
2020/12/15 17:03:01;;;;;;;8.18;4.40;;;;;;;;;;5002999;28;20026;-88
2020/12/15 17:05:26;;;;;;;8.13;4.30;;;;;;;;;;4993295;28;20030;-88
2020/12/15 17:07:52;;;;;;;6.45;4.13;;;;;;;;;;4981775;28;20116;-83
2020/12/15 17:10:17;;;;;;;6.87;4.27;;;;;;;;;;4997285;28;20065;-83
2020/12/15 17:12:42;;;;;;;5.50;4.10;;;;;;;;;;4980974;28;20473;-82
2020/12/15 17:15:08;;;;;;;7.43;4.30;;;;;;;;;;4983019;28;20432;-81
2020/12/15 17:17:33;;;;;;;7.00;4.07;;;;;;;;;;4998753;28;20461;-81
2020/12/15 17:19:59;;;;;;;10.07;8.13;;;;;;;;;;5015749;28;20056;-83
2020/12/15 17:22:26;;;;;;;9.00;6.90;;;;;;;;;;4984057;28;20061;-82
2020/12/15 17:24:52;;;;;;;12.63;9.35;;;;;;;;;;5007574;28;20484;-82
2020/12/15 17:27:17;;;;;;;10.13;7.83;;;;;;;;;;5015935;28;20114;-81
2020/12/15 17:29:42;;;;;;;11.70;8.70;;;;;;;;;;4983624;28;20026;-82
2020/12/15 17:32:08;;;;;;;10.33;7.83;;;;;;;;;;4991921;28;20033;-82
2020/12/15 17:34:33;;;;;;;10.53;7.40;;;;;;;;;;4999314;28;20500;-82
2020/12/15 17:36:58;;;;;;;9.07;5.87;;;;;;;;;;5001067;28;20452;-84
2020/12/15 17:39:24;;;;;;;12.70;8.50;;;;;;;;;;4991529;28;20069;-81
2020/12/15 17:41:50;;;;;;;13.07;8.03;;;;;;;;;;4980364;28;20105;-83
2020/12/15 17:44:17;;;;;;;10.30;6.60;;;;;;;;;;4973602;28;20029;-82
2020/12/15 17:46:52;;;;;;;9.35;6.82;;;;;;;;;;5015508;28;20022;-89
2020/12/15 17:49:17;;;;;;;9.13;6.05;;;;;;;;;;5014226;28;20034;-82
2020/12/15 17:51:49;;;;;;;9.00;5.93;;;;;;;;;;5001442;28;20117;-83
2020/12/15 17:54:14;;;;;;;8.48;5.80;;;;;;;;;;5003975;28;20033;-84
2020/12/15 17:56:40;;;;;;;9.90;5.57;;;;;;;;;;4999657;28;20025;-84
2020/12/15 17:59:05;;;;;;;7.82;5.20;;;;;;;;;;5000456;28;20026;-82
2020/12/15 18:01:31;;;;;;;9.33;5.87;;;;;;;;;;5001798;28;20442;-88
2020/12/15 18:03:56;;;;;;;7.77;5.30;;;;;;;;;;4999423;28;20022;-82
2020/12/15 18:06:21;;;;;;;8.37;5.73;;;;;;;;;;5000262;28;20076;-82
2020/12/15 18:08:47;;;;;;;8.03;5.53;;;;;;;;;;5000707;28;20021;-80
2020/12/15 18:11:16;;;;;;;7.47;5.07;;;;;;;;;;5015259;28;20021;-82
2020/12/15 18:13:42;;;;;;;7.30;4.95;;;;;;;;;;4999405;28;20384;-82
2020/12/15 18:16:16;;;;;;;8.52;4.78;;;;;;;;;;5016249;28;20022;-87
2020/12/15 18:18:42;;;;;;;7.60;4.68;;;;;;;;;;5015311;28;20030;-81
2020/12/15 18:21:07;;;;;;;6.38;4.70;;;;;;;;;;5014872;28;20447;-83
2020/12/15 18:23:32;;;;;;;8.30;4.83;;;;;;;;;;5014920;28;20022;-83
2020/12/15 18:25:58;;;;;;;6.97;4.43;;;;;;;;;;4998603;28;20025;-83
2020/12/15 18:28:24;;;;;;;8.60;4.53;;;;;;;;;;5014838;28;20113;-82
2020/12/15 18:30:58;;;;;;;6.85;4.30;;;;;;;;;;4998886;28;20026;-86
2020/12/15 18:33:23;;;;;;;6.18;4.60;;;;;;;;;;5014679;28;20053;-85
2020/12/15 18:35:49;;;;;;;8.93;4.70;;;;;;;;;;4999036;28;20470;-85
2020/12/15 18:38:14;;;;;;;7.87;4.50;;;;;;;;;;4998199;28;20026;-86
2020/12/15 18:40:39;;;;;;;7.00;4.37;;;;;;;;;;4982780;28;20121;-82
2020/12/15 18:43:05;;;;;;;6.60;4.50;;;;;;;;;;4999251;28;20065;-82
2020/12/15 18:45:30;;;;;;;5.47;4.17;;;;;;;;;;4998156;28;20420;-82
2020/12/15 18:47:56;;;;;;;5.60;4.03;;;;;;;;;;4998493;28;20440;-84
2020/12/15 18:50:21;;;;;;;7.87;3.97;;;;;;;;;;5014591;28;20049;-84
2020/12/15 18:52:46;;;;;;;6.30;4.20;;;;;;;;;;4998797;28;20123;-83
2020/12/15 18:55:11;;;;;;;6.03;4.10;;;;;;;;;;4998272;28;20034;-83
2020/12/15 18:57:38;;;;;;;5.43;3.80;;;;;;;;;;4998086;28;20070;-83
2020/12/15 19:00:03;;;;;;;;;;;;;;;;;;4998150;28;20114;-80
2020/12/15 19:02:29;;;;;;;7.75;3.90;;;;;;;;;;5012947;28;19981;-82
2020/12/15 19:04:54;;;;;;;6.10;4.10;;;;;;;;;;4998660;28;20053;-82
2020/12/15 19:07:19;;;;;;;5.90;3.70;;;;;;;;;;4997901;28;20061;-82
2020/12/15 19:09:45;;;;;;;7.60;3.97;;;;;;;;;;5014076;28;20057;-80
2020/12/15 19:12:10;;;;;;;5.57;3.77;;;;;;;;;;5014111;28;20028;-84
2020/12/15 19:14:35;;;;;;;4.87;3.77;;;;;;;;;;4997958;28;20041;-81
2020/12/15 19:17:01;;;;;;;6.00;4.00;;;;;;;;;;4997909;28;20436;-82
2020/12/15 19:19:26;;;;;;;5.43;3.93;;;;;;;;;;4997644;28;20066;-83
2020/12/15 19:21:55;;;;;;;8.03;4.53;;;;;;;;;;4998144;28;20111;-86
2020/12/15 19:24:20;;;;;;;6.20;4.10;;;;;;;;;;4998323;28;20505;-85
2020/12/15 19:26:45;;;;;;;6.00;4.60;;;;;;;;;;4997054;28;20065;-90
2020/12/15 19:29:11;;;;;;;5.77;4.10;;;;;;;;;;5014012;28;20144;-85
2020/12/15 19:31:39;;;;;;;7.57;4.30;;;;;;;;;;4997117;28;20053;-86
2020/12/15 19:34:04;;;;;;;6.78;4.28;;;;;;;;;;4998232;28;20029;-85
2020/12/15 19:36:34;;;;;;;6.70;4.20;;;;;;;;;;4996922;28;20034;-86
2020/12/15 19:39:00;;;;;;;6.22;3.85;;;;;;;;;;4998232;28;20033;-85
2020/12/15 19:41:36;;;;;;;6.83;3.90;;;;;;;;;;4997045;28;20022;-90
2020/12/15 19:44:02;;;;;;;6.65;3.70;;;;;;;;;;5013590;28;20269;-86
2020/12/15 19:46:29;;;;;;;;;;;;;;;;;;5014396;28;20025;-84
2020/12/15 19:48:57;;;;;;;6.13;3.50;;;;;;;;;;5013635;28;19944;-85
2020/12/15 19:51:23;;;;;;;5.35;3.72;;;;;;;;;;4997725;28;20033;-85
2020/12/15 19:53:48;;;;;;;5.60;3.97;;;;;;;;;;4997813;28;20025;-86
2020/12/15 19:56:13;;;;;;;6.03;3.90;;;;;;;;;;4997268;28;20029;-90
2020/12/15 19:58:39;;;;;;;6.17;3.90;;;;;;;;;;4996546;28;20120;-86
2020/12/15 20:01:04;;;;;;;5.83;3.70;;;;;;;;;;4997115;28;20116;-86
2020/12/15 20:03:29;;;;;;;5.67;4.03;;;;;;;;;;4997070;28;20056;-86
2020/12/15 20:05:54;;;;;;;7.47;4.20;;;;;;;;;;4980803;28;20049;-86
2020/12/15 20:08:20;;;;;;;6.83;4.37;;;;;;;;;;4997361;28;20481;-85
2020/12/15 20:10:45;;;;;;;5.20;3.77;;;;;;;;;;4981039;28;20448;-85
2020/12/15 20:13:10;;;;;;;6.20;3.90;;;;;;;;;;5000464;28;20072;-86
2020/12/15 20:15:36;;;;;;;5.73;3.70;;;;;;;;;;5003649;28;20034;-83
2020/12/15 20:18:02;;;;;;;6.50;4.00;;;;;;;;;;5003594;28;20032;-86
2020/12/15 20:20:27;;;;;;;5.80;3.90;;;;;;;;;;5003197;28;20030;-85
2020/12/15 20:22:52;;;;;;;6.57;4.10;;;;;;;;;;5003674;28;20033;-85
2020/12/15 20:25:18;;;;;;;8.13;4.20;;;;;;;;;;5003305;28;20072;-85
2020/12/15 20:27:43;;;;;;;6.17;4.20;;;;;;;;;;5003871;28;20061;-85
2020/12/15 20:30:08;;;;;;;6.70;3.70;;;;;;;;;;5004230;28;20041;-85
2020/12/15 20:32:34;;;;;;;6.57;4.27;;;;;;;;;;5003441;28;20032;-85
2020/12/15 20:34:59;;;;;;;6.13;4.10;;;;;;;;;;5003830;28;20125;-85
2020/12/15 20:37:24;;;;;;;6.90;4.40;;;;;;;;;;5004068;28;20485;-90
2020/12/15 20:39:50;;;;;;;7.50;4.20;;;;;;;;;;5020161;28;20400;-86
2020/12/15 20:42:15;;;;;;;5.73;4.00;;;;;;;;;;5003530;28;20493;-86
2020/12/15 20:44:41;;;;;;;6.47;4.17;;;;;;;;;;5003644;28;20316;-85
2020/12/15 20:47:06;;;;;;;6.87;4.13;;;;;;;;;;5004843;28;20058;-86
2020/12/15 20:49:32;;;;;;;6.27;4.10;;;;;;;;;;5004138;28;20057;-87
2020/12/15 20:51:57;;;;;;;7.53;4.40;;;;;;;;;;5003678;28;20600;-86
2020/12/15 20:54:23;;;;;;;5.87;4.37;;;;;;;;;;5004497;28;20113;-86
2020/12/15 20:56:52;;;;;;;7.43;4.37;;;;;;;;;;5002851;28;20068;-86
2020/12/15 20:59:18;;;;;;;6.85;4.13;;;;;;;;;;5002704;28;20068;-87
2020/12/15 21:01:43;;;;;;;;;;;;;;;;;;5003314;28;20100;-83
2020/12/15 21:04:09;;;;;;;6.05;4.22;;;;;;;;;;5019557;28;19913;-87
2020/12/15 21:06:34;;;;;;;6.93;4.20;;;;;;;;;;5002280;28;20057;-87
2020/12/15 21:08:59;;;;;;;7.67;4.03;;;;;;;;;;5002776;28;20061;-87
2020/12/15 21:11:28;;;;;;;6.63;4.40;;;;;;;;;;5003418;28;20022;-85
2020/12/15 21:13:53;;;;;;;7.68;4.15;;;;;;;;;;5003473;28;20144;-86
2020/12/15 21:16:19;;;;;;;8.40;4.10;;;;;;;;;;4986891;28;20048;-86
2020/12/15 21:18:44;;;;;;;7.53;4.30;;;;;;;;;;4985533;28;20491;-85
2020/12/15 21:21:13;;;;;;;8.67;4.40;;;;;;;;;;5002608;28;20457;-85
2020/12/15 21:23:39;;;;;;;6.68;4.03;;;;;;;;;;5001752;28;20037;-85
2020/12/15 21:26:08;;;;;;;5.88;4.05;;;;;;;;;;4999677;28;20018;-86
2020/12/15 21:28:33;;;;;;;6.93;4.05;;;;;;;;;;5000400;28;20030;-86
2020/12/15 21:30:58;;;;;;;6.93;3.93;;;;;;;;;;5000604;28;20406;-87
2020/12/15 21:33:24;;;;;;;5.90;4.10;;;;;;;;;;4999850;28;20049;-87
2020/12/15 21:35:50;;;;;;;5.53;4.00;;;;;;;;;;4998918;28;20022;-86
2020/12/15 21:38:15;;;;;;;5.90;3.67;;;;;;;;;;5000018;28;20128;-86
2020/12/15 21:40:41;;;;;;;6.93;4.00;;;;;;;;;;4999769;28;20116;-86
2020/12/15 21:43:06;;;;;;;6.23;3.93;;;;;;;;;;4999735;28;20042;-86
2020/12/15 21:45:31;;;;;;;5.83;4.00;;;;;;;;;;5000059;28;20495;-85
2020/12/15 21:47:57;;;;;;;6.40;4.30;;;;;;;;;;4998990;28;20425;-90
2020/12/15 21:50:22;;;;;;;7.37;3.93;;;;;;;;;;4997508;28;20125;-87